BTV - Patrick Leahy Burlington Intl

Pirep is a free, collaborative database of all public and private airports located within the United States. All pilots are welcome to contribute, edit, and improve any airport they have local knowledge about, no registration required.
Uploaded photos will be licensed under a CC BY-SA 4.0 license. Please only upload photos you have the rights to use.
Tags
Public
Car Rental
METAR / TAF
Edit Tags
Food
Camping
Lodging
Bicycles
Swimming
Golfing
Fishing
Hot Springs
Museum
Flying Clubs
Airpark
Upcoming Events
No upcoming events. Is anything happening here soon?
*
*
*

Where exactly on/near the airport is this event taking place?

Is there a webpage with more information for this event?

Who should be contacted for more information?

What is this event all about?

Repeat every
Description
Last updated: 2023-10-05 02:52:10 EDT
Transient Parking
Fuel Location
Landing & Tie-down Fees
Crew Car Availability
Flying Clubs
WiFi Access
Airport Statistics
Location: Burlington, VT
Elevation: 334ft
Sectional: Montreal
Activation date: Sep 1937
Fuel: 100LL, A (prices)
Runway 15/33: 8,319ft
Runway 01/19: 4,112ft
Access: Open to the public
Current Weather — VFR
  • Weather data is strictly informational and not for flight planning purposes.
  • METAR
    2024-04-22 01:54:00 EDT
    Ceiling Wind Temperature Dewpoint Weather Visbility
    6,000ft 340° @ 9kt 35°F 30°F N/A 10SM
    Clouds: Broken @ 6,000ft, Overcast @ 8,000ft
    Raw: KBTV 220554Z 34009KT 10SM BKN060 OVC080 02/M01 A2994 RMK AO2 PK WND 36028/0518 WSHFT 0448 RAB0459E17SNB17E34 SLP141 P0000 60000 T00221006 10072 20022 53027
  • TAF
    2024-04-22 02:00:00 EDT – 2024-04-22 04:00:00 EDT
    Ceiling Wind Weather Visbility
    4,500ft 340° @ 14kt, gusts 20kt Showers in vicinity 6SM
    Clouds: Scattered @ 2,500ft, Broken @ 4,500ft
    Raw: KBTV 220535Z 2206/2306 34014G20KT P6SM VCSH SCT025 BKN045 FM220800 34009G19KT P6SM SCT090 FM221400 32009G15KT P6SM SKC FM222000 33005KT P6SM SKC FM230000 VRB04KT P6SM SKC
  • TAF
    2024-04-22 04:00:00 EDT – 2024-04-22 10:00:00 EDT
    Ceiling Wind Weather Visbility
    Sky clear 340° @ 9kt, gusts 19kt N/A 6SM
    Clouds: Scattered @ 9,000ft
    Raw: KBTV 220535Z 2206/2306 34014G20KT P6SM VCSH SCT025 BKN045 FM220800 34009G19KT P6SM SCT090 FM221400 32009G15KT P6SM SKC FM222000 33005KT P6SM SKC FM230000 VRB04KT P6SM SKC
  • TAF
    2024-04-22 10:00:00 EDT – 2024-04-22 16:00:00 EDT
    Ceiling Wind Weather Visbility
    Sky clear 320° @ 9kt, gusts 15kt N/A 6SM
    Clouds: @ ft
    Raw: KBTV 220535Z 2206/2306 34014G20KT P6SM VCSH SCT025 BKN045 FM220800 34009G19KT P6SM SCT090 FM221400 32009G15KT P6SM SKC FM222000 33005KT P6SM SKC FM230000 VRB04KT P6SM SKC
  • TAF
    2024-04-22 16:00:00 EDT – 2024-04-22 20:00:00 EDT
    Ceiling Wind Weather Visbility
    Sky clear 330° @ 5kt N/A 6SM
    Clouds: @ ft
    Raw: KBTV 220535Z 2206/2306 34014G20KT P6SM VCSH SCT025 BKN045 FM220800 34009G19KT P6SM SCT090 FM221400 32009G15KT P6SM SKC FM222000 33005KT P6SM SKC FM230000 VRB04KT P6SM SKC
  • TAF
    2024-04-22 20:00:00 EDT – 2024-04-23 02:00:00 EDT
    Ceiling Wind Weather Visbility
    Sky clear Variable N/A 6SM
    Clouds: @ ft
    Raw: KBTV 220535Z 2206/2306 34014G20KT P6SM VCSH SCT025 BKN045 FM220800 34009G19KT P6SM SCT090 FM221400 32009G15KT P6SM SKC FM222000 33005KT P6SM SKC FM230000 VRB04KT P6SM SKC
Click/tap to add an annotation marker to the map
Airport Webcams
No webcams added yet.
Direct links to live image URLs will be displayed inline on this page. URLs to separate webpages will be linked to.
URL:
Direct links to live image URLs will be displayed inline on this page. URLs to separate webpages will be linked to.
URL:
Remarks
  • Existed prior to 1959.
  • Ctn: generating plant 2 nm from aer 15 produces steam which may obsc vsbty on fna.
  • Acr ramp not avbl for pvt & chtr acft.
  • Birds & deer on & invof arpt.
  • Twys d, e, f, n, ang & rng ramps have uncontrolled vehicles & acft.
Comments
Leave a comment What was your experience like at this airport?